createdAt,value
2022-10-23T00:00:13.029Z,6.11
2022-10-23T00:02:44.329Z,6.15
2022-10-23T00:05:14.135Z,6.05
2022-10-23T00:07:42.976Z,5.99
2022-10-23T00:10:12.136Z,5.88
2022-10-23T00:12:41.802Z,5.88
2022-10-23T00:15:12.665Z,5.67
2022-10-23T00:17:43.655Z,5.65
2022-10-23T00:20:14.670Z,5.73
2022-10-23T00:22:44.205Z,5.58
2022-10-23T00:25:16.737Z,5.63
2022-10-23T00:27:46.190Z,5.64
2022-10-23T00:30:15.807Z,5.57
2022-10-23T00:32:46.558Z,5.43
2022-10-23T00:35:17.090Z,5.47
2022-10-23T00:37:46.175Z,5.51
2022-10-23T00:40:15.036Z,5.47
2022-10-23T00:42:46.656Z,5.44
2022-10-23T00:45:24.175Z,5.47
2022-10-23T00:47:55.717Z,5.44
2022-10-23T00:50:27.140Z,5.31
2022-10-23T00:53:00.594Z,5.43
2022-10-23T00:55:31.687Z,5.31
2022-10-23T00:58:00.946Z,5.38
2022-10-23T01:00:33.377Z,5.39
2022-10-23T01:03:04.401Z,5.25
2022-10-23T01:08:30.654Z,5.23
2022-10-23T01:11:09.409Z,5.21
2022-10-23T01:13:48.161Z,5.22
2022-10-23T01:16:25.189Z,5.14
2022-10-23T01:19:08.588Z,5.17
2022-10-23T01:21:56.487Z,5.14
2022-10-23T01:24:44.670Z,5.19
2022-10-23T01:27:23.452Z,5.11
2022-10-23T01:30:04.758Z,5.08
2022-10-23T01:32:48.182Z,5.01
2022-10-23T01:35:24.145Z,5.09
2022-10-23T01:38:16.356Z,5.04
2022-10-23T01:40:54.316Z,5.18
2022-10-23T01:43:30.931Z,5.05
2022-10-23T01:46:06.943Z,5.08
2022-10-23T01:48:39.833Z,5.12
2022-10-23T01:51:14.976Z,5.09
2022-10-23T01:53:48.536Z,5.09
2022-10-23T01:56:23.984Z,5.09
2022-10-23T01:58:57.985Z,5.12
2022-10-23T02:01:32.275Z,5.04
2022-10-23T02:04:07.025Z,5.11
2022-10-23T02:06:36.057Z,5.12
2022-10-23T02:09:06.724Z,5.00
2022-10-23T02:11:55.148Z,4.89
2022-10-23T02:14:38.050Z,5.05
2022-10-23T02:17:17.294Z,4.95
2022-10-23T02:19:57.727Z,4.92
2022-10-23T02:22:34.680Z,4.91
2022-10-23T02:25:15.044Z,4.95
2022-10-23T02:27:52.047Z,4.90
2022-10-23T02:30:24.498Z,4.94
2022-10-23T02:33:07.451Z,4.85
2022-10-23T02:35:36.984Z,4.79
2022-10-23T02:38:37.318Z,4.91
2022-10-23T02:41:23.582Z,4.84
2022-10-23T02:44:08.825Z,4.83
2022-10-23T02:46:52.098Z,4.88
2022-10-23T02:49:31.855Z,4.78
2022-10-23T02:52:12.176Z,4.88
2022-10-23T02:55:02.081Z,4.85
2022-10-23T02:57:40.280Z,4.90
2022-10-23T03:00:13.568Z,4.91
2022-10-23T03:02:52.761Z,4.88
2022-10-23T03:05:30.490Z,4.91
2022-10-23T03:07:59.588Z,4.81
2022-10-23T03:10:28.340Z,4.81
2022-10-23T03:12:57.148Z,4.90
2022-10-23T03:15:26.131Z,4.82
2022-10-23T03:17:57.476Z,4.93
2022-10-23T03:20:26.433Z,4.91
2022-10-23T03:22:55.241Z,4.86
2022-10-23T03:25:24.139Z,4.81
2022-10-23T03:27:52.949Z,4.92
2022-10-23T03:30:21.670Z,5.03
2022-10-23T03:32:56.561Z,4.92
2022-10-23T03:35:25.348Z,4.85
2022-10-23T03:37:54.042Z,4.80
2022-10-23T03:40:25.354Z,4.81
2022-10-23T03:42:54.020Z,4.75
2022-10-23T03:45:22.744Z,4.75
2022-10-23T03:47:51.935Z,4.86
2022-10-23T03:50:22.289Z,4.72
2022-10-23T03:52:51.210Z,4.79
2022-10-23T03:55:19.996Z,4.77
2022-10-23T03:57:48.687Z,4.75
2022-10-23T04:00:18.559Z,4.83
2022-10-23T04:02:49.168Z,4.81
2022-10-23T04:05:18.843Z,4.75
2022-10-23T04:07:57.963Z,4.65
2022-10-23T04:10:27.315Z,4.71
2022-10-23T04:12:57.327Z,4.75
2022-10-23T04:15:26.114Z,4.72
2022-10-23T04:17:55.076Z,4.65
2022-10-23T04:20:23.854Z,4.72
2022-10-23T04:22:52.893Z,4.67
2022-10-23T04:25:23.097Z,4.65
2022-10-23T04:27:52.313Z,4.65
2022-10-23T04:30:21.403Z,4.67
2022-10-23T04:32:52.301Z,4.58
2022-10-23T04:35:21.237Z,4.51
2022-10-23T04:37:49.982Z,4.58
2022-10-23T04:40:18.883Z,4.50
2022-10-23T04:42:48.976Z,4.44
2022-10-23T04:45:17.917Z,4.53
2022-10-23T04:47:46.849Z,4.57
2022-10-23T04:50:16.372Z,4.50
2022-10-23T04:53:03.667Z,4.46
2022-10-23T04:55:51.837Z,4.44
2022-10-23T04:58:31.029Z,4.57
2022-10-23T05:01:00.401Z,4.55
2022-10-23T05:03:30.577Z,4.62
2022-10-23T05:05:59.417Z,4.60
2022-10-23T05:08:46.887Z,4.59
2022-10-23T05:11:21.484Z,4.62
2022-10-23T05:13:53.562Z,4.61
2022-10-23T05:16:37.313Z,4.57
2022-10-23T05:19:10.303Z,4.56
2022-10-23T05:21:41.768Z,4.60
2022-10-23T05:24:12.863Z,4.72
2022-10-23T05:26:42.123Z,4.68
2022-10-23T05:29:13.440Z,4.64
2022-10-23T05:31:42.192Z,4.63
2022-10-23T05:34:17.810Z,4.62
2022-10-23T05:36:47.339Z,4.73
2022-10-23T05:39:17.321Z,4.76
2022-10-23T05:41:47.199Z,4.74
2022-10-23T05:44:23.447Z,4.74
2022-10-23T05:47:12.497Z,4.69
2022-10-23T05:49:47.111Z,4.70
2022-10-23T05:52:32.284Z,4.69
2022-10-23T05:55:19.287Z,4.75
2022-10-23T05:57:58.314Z,4.68
2022-10-23T06:00:46.552Z,4.78
2022-10-23T06:03:35.479Z,4.77
2022-10-23T06:06:08.882Z,4.79
2022-10-23T06:08:49.786Z,4.77
2022-10-23T06:11:21.310Z,4.86
2022-10-23T06:14:04.534Z,4.99
2022-10-23T06:16:35.171Z,4.98
2022-10-23T06:19:04.490Z,4.99
2022-10-23T06:21:37.811Z,5.08
2022-10-23T06:24:09.216Z,5.07
2022-10-23T06:26:44.031Z,5.14
2022-10-23T06:29:18.723Z,5.16
2022-10-23T06:31:49.007Z,5.14
2022-10-23T06:34:17.763Z,5.19
2022-10-23T06:36:48.298Z,5.17
2022-10-23T06:39:36.928Z,5.21
2022-10-23T06:42:17.251Z,5.26
2022-10-23T06:44:59.712Z,5.37
2022-10-23T06:47:53.338Z,5.26
2022-10-23T06:50:53.392Z,5.29
2022-10-23T06:53:35.946Z,5.35
2022-10-23T06:56:13.994Z,5.31
2022-10-23T06:58:43.118Z,5.43
2022-10-23T07:01:16.990Z,5.53
2022-10-23T07:03:49.594Z,5.65
2022-10-23T07:06:23.241Z,5.66
2022-10-23T07:08:52.373Z,5.69
2022-10-23T07:11:43.985Z,5.67
2022-10-23T07:14:13.362Z,5.79
2022-10-23T07:16:42.327Z,5.83
2022-10-23T07:19:13.048Z,5.79
2022-10-23T07:21:48.381Z,5.75
2022-10-23T07:24:29.055Z,5.95
2022-10-23T07:26:59.966Z,5.91
2022-10-23T07:29:31.179Z,5.99
2022-10-23T07:32:01.027Z,6.00
2022-10-23T07:34:49.775Z,6.07
2022-10-23T07:37:27.151Z,6.16
2022-10-23T07:39:55.925Z,6.14
2022-10-23T07:42:25.731Z,6.14
2022-10-23T07:44:54.617Z,6.23
2022-10-23T07:47:23.610Z,6.36
2022-10-23T07:49:55.236Z,6.29
2022-10-23T07:52:24.287Z,6.27
2022-10-23T07:55:23.435Z,6.42
2022-10-23T07:57:59.374Z,6.50
2022-10-23T08:00:42.554Z,6.57
2022-10-23T08:03:18.506Z,6.65
2022-10-23T08:05:50.749Z,6.75
2022-10-23T08:08:19.477Z,6.81
2022-10-23T08:10:54.804Z,6.88
2022-10-23T08:13:29.318Z,6.97
2022-10-23T08:16:03.484Z,7.02
2022-10-23T08:18:53.219Z,7.07
2022-10-23T08:21:23.439Z,7.18
2022-10-23T08:23:56.031Z,7.17
2022-10-23T08:26:26.668Z,7.16
2022-10-23T08:28:55.494Z,7.25
2022-10-23T08:31:25.216Z,7.20
2022-10-23T08:34:15.424Z,7.28
2022-10-23T08:36:48.034Z,7.31
2022-10-23T08:39:17.759Z,7.34
2022-10-23T08:42:03.570Z,7.36
2022-10-23T08:44:37.746Z,7.49
2022-10-23T08:47:13.062Z,7.49
2022-10-23T08:50:07.274Z,7.60
2022-10-23T08:52:44.273Z,7.74
2022-10-23T08:55:22.663Z,7.81
2022-10-23T08:58:02.349Z,7.89
2022-10-23T09:00:33.888Z,7.79
2022-10-23T09:03:05.913Z,7.85
2022-10-23T09:05:44.186Z,7.89
2022-10-23T09:08:35.441Z,7.95
2022-10-23T09:11:08.879Z,7.75
2022-10-23T09:14:36.096Z,7.79
2022-10-23T09:17:17.777Z,7.76
2022-10-23T09:19:49.212Z,7.73
2022-10-23T09:22:17.974Z,7.70
2022-10-23T09:24:52.959Z,7.71
2022-10-23T09:27:22.871Z,7.79
2022-10-23T09:29:54.797Z,7.68
2022-10-23T09:32:36.133Z,7.66
2022-10-23T09:35:06.980Z,7.56
2022-10-23T09:37:37.628Z,7.55
2022-10-23T09:40:20.585Z,7.66
2022-10-23T09:42:56.117Z,7.61
2022-10-23T09:45:30.314Z,7.68
2022-10-23T09:48:21.545Z,7.61
2022-10-23T09:50:54.592Z,7.63
2022-10-23T09:53:39.847Z,7.67
2022-10-23T09:56:27.969Z,7.62
2022-10-23T09:58:59.687Z,7.72
2022-10-23T10:01:32.731Z,7.72
2022-10-23T10:04:37.889Z,7.79
2022-10-23T10:07:20.604Z,7.82
2022-10-23T10:09:50.052Z,7.78
2022-10-23T10:12:40.978Z,7.80
2022-10-23T10:15:27.083Z,7.79
2022-10-23T10:18:12.268Z,7.81
2022-10-23T10:21:15.805Z,7.89
2022-10-23T10:23:51.569Z,7.85
2022-10-23T10:26:40.780Z,7.81
2022-10-23T10:29:30.074Z,7.75
2022-10-23T10:32:17.813Z,7.79
2022-10-23T10:34:57.332Z,7.77
2022-10-23T10:37:38.223Z,7.73
2022-10-23T10:40:23.552Z,7.64
2022-10-23T10:43:18.537Z,7.64
2022-10-23T10:45:50.494Z,7.57
2022-10-23T10:48:47.122Z,7.60
2022-10-23T10:51:30.439Z,7.51
2022-10-23T10:54:36.921Z,7.51
2022-10-23T10:57:22.078Z,7.52
2022-10-23T10:59:57.016Z,7.48
2022-10-23T11:02:36.633Z,7.47
2022-10-23T11:05:20.145Z,7.49
2022-10-23T11:07:58.167Z,7.49
2022-10-23T11:10:29.152Z,7.48
2022-10-23T11:12:58.832Z,7.45
2022-10-23T11:15:40.139Z,7.50
2022-10-23T11:18:23.391Z,7.47
2022-10-23T11:21:11.290Z,7.50
2022-10-23T11:24:26.152Z,7.49
2022-10-23T11:27:21.227Z,7.47
2022-10-23T11:30:14.061Z,7.53
2022-10-23T11:33:41.403Z,7.51
2022-10-23T11:36:19.377Z,7.49
2022-10-23T11:38:53.964Z,7.52
2022-10-23T11:41:27.241Z,7.59
2022-10-23T11:44:01.838Z,7.65
2022-10-23T11:46:34.068Z,7.61
2022-10-23T11:49:06.602Z,7.70
2022-10-23T11:51:38.396Z,7.63
2022-10-23T11:54:24.631Z,7.61
2022-10-23T11:57:12.584Z,7.60
2022-10-23T11:59:57.030Z,7.68
2022-10-23T12:02:36.987Z,7.62
2022-10-23T12:05:10.898Z,7.64
2022-10-23T12:07:43.133Z,7.59
2022-10-23T12:10:27.787Z,7.65
2022-10-23T12:12:59.838Z,7.69
2022-10-23T12:15:29.874Z,7.73
2022-10-23T12:18:15.008Z,7.68
2022-10-23T12:20:53.911Z,7.66
2022-10-23T12:23:48.393Z,7.66
2022-10-23T12:26:52.707Z,7.65
2022-10-23T12:29:41.080Z,7.70
2022-10-23T12:32:32.475Z,7.74
2022-10-23T12:35:26.595Z,7.72
2022-10-23T12:38:13.584Z,7.70
2022-10-23T12:40:45.757Z,7.62
2022-10-23T12:43:29.564Z,7.63
2022-10-23T12:46:05.331Z,7.59
2022-10-23T12:48:35.804Z,7.68
2022-10-23T12:51:05.137Z,7.68
2022-10-23T12:53:36.265Z,7.63
2022-10-23T12:56:07.692Z,7.65
2022-10-23T12:58:38.168Z,7.70
2022-10-23T13:01:09.251Z,7.69
2022-10-23T13:03:40.428Z,7.79
2022-10-23T13:06:13.037Z,7.83
2022-10-23T13:08:49.517Z,7.77
2022-10-23T13:11:40.190Z,7.82
2022-10-23T13:14:29.551Z,7.86
2022-10-23T13:17:02.824Z,7.86
2022-10-23T13:19:32.331Z,7.86
2022-10-23T13:22:04.474Z,7.93
2022-10-23T13:24:34.930Z,7.86
2022-10-23T13:27:05.301Z,7.92
2022-10-23T13:29:36.439Z,7.88
2022-10-23T13:32:24.957Z,7.96
2022-10-23T13:35:03.924Z,7.96
2022-10-23T13:37:40.066Z,8.08
2022-10-23T13:40:26.280Z,8.09
2022-10-23T13:42:59.222Z,8.11
2022-10-23T13:45:29.130Z,8.11
2022-10-23T13:47:58.359Z,8.08
2022-10-23T13:50:28.937Z,8.14
2022-10-23T13:52:58.633Z,8.12
2022-10-23T13:55:30.291Z,8.21
2022-10-23T13:57:59.777Z,8.24
2022-10-23T14:00:29.143Z,8.20
2022-10-23T14:02:58.515Z,8.16
2022-10-23T14:05:27.960Z,8.20
2022-10-23T14:07:57.263Z,8.10
2022-10-23T14:10:27.817Z,8.06
2022-10-23T14:12:58.697Z,8.14
2022-10-23T14:15:28.132Z,8.07
2022-10-23T14:17:59.468Z,8.07
2022-10-23T14:20:30.469Z,8.16
2022-10-23T14:23:01.946Z,8.21
2022-10-23T14:25:31.291Z,8.21
2022-10-23T14:28:02.083Z,8.20
2022-10-23T14:30:31.419Z,8.20
2022-10-23T14:33:00.828Z,8.19
2022-10-23T14:35:30.150Z,8.21
2022-10-23T14:37:59.370Z,8.21
2022-10-23T14:40:28.639Z,8.19
2022-10-23T14:42:58.045Z,8.19
2022-10-23T14:45:29.992Z,8.20
2022-10-23T14:48:01.206Z,8.14
2022-10-23T14:50:32.567Z,8.26
2022-10-23T14:53:05.126Z,8.18
2022-10-23T14:55:34.587Z,8.21
2022-10-23T14:58:03.931Z,8.22
2022-10-23T15:00:34.797Z,8.20
2022-10-23T15:03:04.121Z,8.24
2022-10-23T15:05:33.457Z,8.21
2022-10-23T15:08:02.823Z,8.25
2022-10-23T15:10:32.173Z,8.20
2022-10-23T15:13:01.450Z,8.25
2022-10-23T15:15:30.806Z,8.31
2022-10-23T15:18:01.533Z,8.29
2022-10-23T15:20:30.860Z,8.25
2022-10-23T15:23:01.115Z,8.19
2022-10-23T15:25:30.962Z,8.21
2022-10-23T15:28:03.040Z,8.22
2022-10-23T15:30:37.621Z,8.22
2022-10-23T15:33:08.427Z,8.16
2022-10-23T15:35:37.993Z,8.24
2022-10-23T15:38:07.270Z,8.21
2022-10-23T15:40:36.389Z,8.21
2022-10-23T15:43:06.349Z,8.26
2022-10-23T15:45:35.838Z,8.16
2022-10-23T15:48:05.559Z,8.20
2022-10-23T15:50:37.510Z,8.19
2022-10-23T15:53:07.020Z,8.29
2022-10-23T15:55:36.619Z,8.19
2022-10-23T15:58:06.470Z,8.21
2022-10-23T16:00:36.895Z,8.21
2022-10-23T16:03:09.296Z,8.23
2022-10-23T16:05:44.864Z,8.20
2022-10-23T16:08:14.162Z,8.20
2022-10-23T16:10:46.132Z,8.26
2022-10-23T16:13:15.475Z,8.20
2022-10-23T16:15:47.288Z,8.14
2022-10-23T16:18:19.650Z,8.07
2022-10-23T16:20:55.211Z,8.17
2022-10-23T16:23:38.708Z,8.12
2022-10-23T16:26:08.543Z,8.21
2022-10-23T16:28:38.400Z,8.19
2022-10-23T16:31:17.697Z,8.28
2022-10-23T16:33:51.757Z,8.26
2022-10-23T16:36:23.293Z,8.16
2022-10-23T16:39:13.404Z,8.33
2022-10-23T16:42:04.641Z,8.31
2022-10-23T16:44:51.980Z,8.33
2022-10-23T16:47:22.092Z,8.33
2022-10-23T16:49:54.169Z,8.36
2022-10-23T16:52:33.380Z,8.40
2022-10-23T16:55:04.025Z,8.38
2022-10-23T16:57:33.464Z,8.36
2022-10-23T17:00:05.802Z,8.34
2022-10-23T17:02:35.969Z,8.36
2022-10-23T17:05:05.692Z,8.26
2022-10-23T17:07:37.308Z,8.32
2022-10-23T17:10:08.126Z,8.31
2022-10-23T17:12:38.445Z,8.39
2022-10-23T17:15:10.040Z,8.30
2022-10-23T17:17:39.680Z,8.28
2022-10-23T17:20:10.642Z,8.28
2022-10-23T17:22:41.625Z,8.21
2022-10-23T17:25:16.706Z,8.18
2022-10-23T17:27:48.440Z,8.15
2022-10-23T17:30:20.362Z,8.24
2022-10-23T17:32:50.055Z,8.19
2022-10-23T17:35:24.627Z,8.26
2022-10-23T17:37:57.351Z,8.08
2022-10-23T17:40:30.992Z,8.14
2022-10-23T17:43:05.373Z,8.14
2022-10-23T17:45:37.603Z,8.13
2022-10-23T17:48:09.327Z,8.14
2022-10-23T17:50:38.844Z,8.12
2022-10-23T17:53:14.088Z,8.11
2022-10-23T17:55:44.199Z,8.13
2022-10-23T17:58:13.618Z,8.14
2022-10-23T18:00:44.229Z,8.10
2022-10-23T18:03:22.404Z,8.14
2022-10-23T18:05:57.095Z,8.03
2022-10-23T18:08:32.416Z,8.04
2022-10-23T18:11:28.825Z,8.10
2022-10-23T18:14:04.889Z,8.13
2022-10-23T18:16:53.022Z,8.17
2022-10-23T18:19:22.475Z,8.17
2022-10-23T18:21:52.117Z,8.21
2022-10-23T18:24:23.142Z,8.20
2022-10-23T18:26:52.585Z,8.18
2022-10-23T18:29:23.066Z,8.08
2022-10-23T18:31:52.783Z,8.19
2022-10-23T18:34:25.152Z,8.31
2022-10-23T18:36:56.448Z,8.22
2022-10-23T18:39:27.707Z,8.13
2022-10-23T18:41:59.853Z,8.14
2022-10-23T18:44:30.382Z,8.05
2022-10-23T18:47:01.615Z,8.01
2022-10-23T18:49:33.838Z,8.00
2022-10-23T18:52:03.680Z,8.01
2022-10-23T18:54:36.893Z,7.98
2022-10-23T18:57:06.508Z,7.97
2022-10-23T18:59:35.980Z,7.88
2022-10-23T19:02:05.584Z,7.91
2022-10-23T19:04:37.479Z,7.91
2022-10-23T19:07:11.900Z,8.00
2022-10-23T19:09:43.248Z,7.92
2022-10-23T19:14:43.744Z,8.02
2022-10-23T19:17:19.830Z,7.68
2022-10-23T19:19:57.313Z,7.71
2022-10-23T19:22:33.074Z,7.75
2022-10-23T19:25:11.393Z,7.71
2022-10-23T19:27:43.434Z,7.69
2022-10-23T19:30:21.856Z,7.77
2022-10-23T19:32:53.555Z,7.70
2022-10-23T19:35:23.900Z,7.74
2022-10-23T19:37:53.190Z,7.70
2022-10-23T19:40:25.127Z,7.68
2022-10-23T19:42:55.210Z,7.50
2022-10-23T19:45:24.606Z,7.57
2022-10-23T19:47:54.187Z,7.53
2022-10-23T19:50:23.697Z,7.53
2022-10-23T19:52:53.056Z,7.44
2022-10-23T19:55:23.955Z,7.37
2022-10-23T19:57:53.365Z,7.06
2022-10-23T20:00:22.875Z,7.21
2022-10-23T20:02:55.182Z,7.17
2022-10-23T20:05:29.754Z,7.04
2022-10-23T20:08:01.934Z,7.05
2022-10-23T20:10:34.171Z,7.05
2022-10-23T20:13:18.678Z,7.14
2022-10-23T20:15:48.904Z,6.92
2022-10-23T20:18:18.224Z,7.23
2022-10-23T20:20:47.562Z,7.20
2022-10-23T20:23:16.744Z,7.06
2022-10-23T20:25:47.445Z,6.98
2022-10-23T20:28:16.700Z,7.00
2022-10-23T20:30:46.212Z,6.95
2022-10-23T20:33:16.574Z,7.09
2022-10-23T20:35:46.031Z,6.93
2022-10-23T20:38:15.155Z,6.95
2022-10-23T20:40:44.329Z,6.91
2022-10-23T20:43:14.507Z,6.67
2022-10-23T20:45:43.954Z,6.68
2022-10-23T20:48:12.812Z,6.63
2022-10-23T20:50:41.925Z,6.61
2022-10-23T20:53:10.863Z,6.51
2022-10-23T20:55:43.619Z,6.37
2022-10-23T20:58:13.770Z,6.37
2022-10-23T21:00:42.564Z,6.37
2022-10-23T21:03:11.281Z,6.06
2022-10-23T21:05:40.370Z,6.06
2022-10-23T21:08:09.241Z,6.00
2022-10-23T21:10:38.119Z,6.05
2022-10-23T21:13:06.824Z,6.07
2022-10-23T21:15:37.277Z,5.93
2022-10-23T21:18:26.543Z,5.83
2022-10-23T21:21:02.621Z,5.82
2022-10-23T21:23:31.264Z,5.69
2022-10-23T21:26:02.350Z,5.66
2022-10-23T21:28:33.948Z,5.71
2022-10-23T21:31:09.999Z,5.56
2022-10-23T21:33:39.065Z,5.41
2022-10-23T21:36:13.952Z,5.54
2022-10-23T21:38:42.991Z,5.47
2022-10-23T21:41:15.048Z,5.52
2022-10-23T21:43:44.251Z,5.52
2022-10-23T21:46:17.900Z,5.41
2022-10-23T21:48:48.403Z,5.39
2022-10-23T21:51:24.048Z,5.38
2022-10-23T21:53:54.347Z,5.39
2022-10-23T21:56:30.867Z,5.50
2022-10-23T21:59:01.539Z,5.30
2022-10-23T22:01:31.958Z,5.26
2022-10-23T22:04:00.873Z,5.39
2022-10-23T22:06:31.300Z,5.19
2022-10-23T22:09:01.539Z,5.26
2022-10-23T22:11:30.569Z,5.01
2022-10-23T22:14:00.788Z,4.91
2022-10-23T22:16:32.375Z,4.95
2022-10-23T22:19:01.364Z,4.93
2022-10-23T22:21:33.154Z,4.79
2022-10-23T22:26:35.645Z,4.70
2022-10-23T22:29:09.064Z,4.91
2022-10-23T22:31:44.188Z,4.66
2022-10-23T22:34:34.871Z,4.57
2022-10-23T22:37:09.143Z,4.69
2022-10-23T22:39:38.039Z,4.52
2022-10-23T22:42:06.873Z,4.60
2022-10-23T22:44:35.674Z,4.47
2022-10-23T22:47:06.567Z,4.40
2022-10-23T22:49:35.365Z,4.37
2022-10-23T22:52:04.222Z,4.40
2022-10-23T22:54:33.199Z,4.38
2022-10-23T22:57:02.142Z,4.31
2022-10-23T22:59:30.920Z,4.32
2022-10-23T23:01:59.850Z,4.32
2022-10-23T23:04:37.719Z,4.32
2022-10-23T23:07:09.126Z,4.19
2022-10-23T23:09:39.868Z,4.16
2022-10-23T23:12:11.788Z,4.25
2022-10-23T23:14:41.725Z,4.07
2022-10-23T23:17:11.464Z,4.09
2022-10-23T23:19:41.765Z,4.05
2022-10-23T23:22:10.891Z,4.05
2022-10-23T23:24:39.716Z,4.11
2022-10-23T23:27:08.500Z,4.02
2022-10-23T23:29:37.400Z,4.06
2022-10-23T23:32:07.159Z,3.90
2022-10-23T23:34:35.892Z,4.03
2022-10-23T23:37:06.326Z,3.93
2022-10-23T23:39:35.201Z,3.81
2022-10-23T23:42:04.398Z,3.78
2022-10-23T23:44:34.592Z,3.61
2022-10-23T23:47:05.546Z,3.70
2022-10-23T23:49:34.601Z,3.63
2022-10-23T23:52:03.415Z,3.79
2022-10-23T23:54:33.722Z,3.78
2022-10-23T23:57:05.817Z,3.71
2022-10-23T23:59:38.910Z,3.71
